sensor_id;sensor_type;location;lat;lon;timestamp;P1;durP1;ratioP1;P2;durP2;ratioP2
6519;SDS011;3293;51.690;5.982;2023-08-07T00:02:31;10.33;;;3.83;;
6519;SDS011;3293;51.690;5.982;2023-08-07T00:07:32;7.50;;;3.03;;
6519;SDS011;3293;51.690;5.982;2023-08-07T00:12:32;12.80;;;3.70;;
6519;SDS011;3293;51.690;5.982;2023-08-07T00:17:33;10.07;;;4.33;;
6519;SDS011;3293;51.690;5.982;2023-08-07T00:22:34;7.93;;;3.33;;
6519;SDS011;3293;51.690;5.982;2023-08-07T00:27:34;11.60;;;4.03;;
6519;SDS011;3293;51.690;5.982;2023-08-07T00:32:34;10.43;;;3.83;;
6519;SDS011;3293;51.690;5.982;2023-08-07T00:37:34;8.87;;;3.67;;
6519;SDS011;3293;51.690;5.982;2023-08-07T00:42:34;12.53;;;3.93;;
6519;SDS011;3293;51.690;5.982;2023-08-07T00:47:34;10.20;;;3.90;;
6519;SDS011;3293;51.690;5.982;2023-08-07T00:52:34;11.87;;;4.00;;
6519;SDS011;3293;51.690;5.982;2023-08-07T00:57:34;14.00;;;4.07;;
6519;SDS011;3293;51.690;5.982;2023-08-07T01:02:34;10.50;;;4.00;;
6519;SDS011;3293;51.690;5.982;2023-08-07T01:07:34;15.27;;;4.40;;
6519;SDS011;3293;51.690;5.982;2023-08-07T01:12:47;9.87;;;4.40;;
6519;SDS011;3293;51.690;5.982;2023-08-07T01:17:52;11.07;;;4.20;;
6519;SDS011;3293;51.690;5.982;2023-08-07T01:22:54;16.53;;;5.00;;
6519;SDS011;3293;51.690;5.982;2023-08-07T01:28:02;17.90;;;4.80;;
6519;SDS011;3293;51.690;5.982;2023-08-07T01:38:22;14.97;;;4.00;;
6519;SDS011;3293;51.690;5.982;2023-08-07T01:43:25;14.10;;;4.73;;
6519;SDS011;3293;51.690;5.982;2023-08-07T01:48:27;13.30;;;3.90;;
6519;SDS011;3293;51.690;5.982;2023-08-07T01:53:27;9.87;;;3.63;;
6519;SDS011;3293;51.690;5.982;2023-08-07T01:58:27;13.03;;;3.70;;
6519;SDS011;3293;51.690;5.982;2023-08-07T02:03:27;11.00;;;4.10;;
6519;SDS011;3293;51.690;5.982;2023-08-07T02:08:28;13.57;;;4.70;;
6519;SDS011;3293;51.690;5.982;2023-08-07T02:13:28;14.33;;;4.10;;
6519;SDS011;3293;51.690;5.982;2023-08-07T02:18:28;11.77;;;3.83;;
6519;SDS011;3293;51.690;5.982;2023-08-07T02:23:28;15.80;;;4.10;;
6519;SDS011;3293;51.690;5.982;2023-08-07T02:28:28;18.33;;;4.10;;
6519;SDS011;3293;51.690;5.982;2023-08-07T02:33:28;7.73;;;4.03;;
6519;SDS011;3293;51.690;5.982;2023-08-07T02:38:32;11.40;;;4.13;;
6519;SDS011;3293;51.690;5.982;2023-08-07T02:43:32;10.13;;;3.90;;
6519;SDS011;3293;51.690;5.982;2023-08-07T02:48:33;8.03;;;4.00;;
6519;SDS011;3293;51.690;5.982;2023-08-07T02:53:33;15.70;;;4.27;;
6519;SDS011;3293;51.690;5.982;2023-08-07T02:58:34;9.40;;;3.93;;
6519;SDS011;3293;51.690;5.982;2023-08-07T03:03:34;11.33;;;3.73;;
6519;SDS011;3293;51.690;5.982;2023-08-07T03:08:34;11.30;;;3.90;;
6519;SDS011;3293;51.690;5.982;2023-08-07T03:13:34;10.60;;;4.20;;
6519;SDS011;3293;51.690;5.982;2023-08-07T03:18:34;12.17;;;4.47;;
6519;SDS011;3293;51.690;5.982;2023-08-07T03:23:34;17.63;;;4.87;;
6519;SDS011;3293;51.690;5.982;2023-08-07T03:28:34;13.00;;;3.53;;
6519;SDS011;3293;51.690;5.982;2023-08-07T03:33:34;13.70;;;4.07;;
6519;SDS011;3293;51.690;5.982;2023-08-07T03:38:34;14.23;;;4.63;;
6519;SDS011;3293;51.690;5.982;2023-08-07T03:43:34;16.63;;;4.90;;
6519;SDS011;3293;51.690;5.982;2023-08-07T03:48:35;12.87;;;4.80;;
6519;SDS011;3293;51.690;5.982;2023-08-07T03:53:35;12.43;;;4.07;;
6519;SDS011;3293;51.690;5.982;2023-08-07T03:58:35;12.17;;;4.60;;
6519;SDS011;3293;51.690;5.982;2023-08-07T04:03:35;16.87;;;4.63;;
6519;SDS011;3293;51.690;5.982;2023-08-07T04:08:36;19.53;;;5.00;;
6519;SDS011;3293;51.690;5.982;2023-08-07T04:13:36;16.93;;;5.00;;
6519;SDS011;3293;51.690;5.982;2023-08-07T04:18:36;18.00;;;4.67;;
6519;SDS011;3293;51.690;5.982;2023-08-07T04:23:36;10.37;;;4.53;;
6519;SDS011;3293;51.690;5.982;2023-08-07T04:28:36;10.83;;;5.33;;
6519;SDS011;3293;51.690;5.982;2023-08-07T04:33:36;11.90;;;4.37;;
6519;SDS011;3293;51.690;5.982;2023-08-07T04:38:36;14.57;;;5.43;;
6519;SDS011;3293;51.690;5.982;2023-08-07T04:43:36;21.40;;;5.20;;
6519;SDS011;3293;51.690;5.982;2023-08-07T04:48:36;14.83;;;5.50;;
6519;SDS011;3293;51.690;5.982;2023-08-07T04:53:36;11.63;;;5.30;;
6519;SDS011;3293;51.690;5.982;2023-08-07T04:58:36;14.97;;;4.53;;
6519;SDS011;3293;51.690;5.982;2023-08-07T05:03:36;14.43;;;4.40;;
6519;SDS011;3293;51.690;5.982;2023-08-07T05:08:36;18.37;;;5.70;;
6519;SDS011;3293;51.690;5.982;2023-08-07T05:13:36;13.87;;;5.00;;
6519;SDS011;3293;51.690;5.982;2023-08-07T05:18:36;10.37;;;4.43;;
6519;SDS011;3293;51.690;5.982;2023-08-07T05:23:36;10.17;;;5.17;;
6519;SDS011;3293;51.690;5.982;2023-08-07T05:28:36;9.30;;;4.90;;
6519;SDS011;3293;51.690;5.982;2023-08-07T05:33:36;12.27;;;5.13;;
6519;SDS011;3293;51.690;5.982;2023-08-07T05:38:36;13.60;;;4.93;;
6519;SDS011;3293;51.690;5.982;2023-08-07T05:43:36;17.43;;;5.13;;
6519;SDS011;3293;51.690;5.982;2023-08-07T05:48:36;12.90;;;5.43;;
6519;SDS011;3293;51.690;5.982;2023-08-07T05:53:36;15.07;;;4.93;;
6519;SDS011;3293;51.690;5.982;2023-08-07T05:58:37;13.23;;;5.67;;
6519;SDS011;3293;51.690;5.982;2023-08-07T06:03:36;16.43;;;5.20;;
6519;SDS011;3293;51.690;5.982;2023-08-07T06:08:37;16.33;;;4.77;;
6519;SDS011;3293;51.690;5.982;2023-08-07T06:13:37;13.43;;;5.03;;
6519;SDS011;3293;51.690;5.982;2023-08-07T06:18:37;13.87;;;5.30;;
6519;SDS011;3293;51.690;5.982;2023-08-07T06:23:37;14.27;;;5.07;;
6519;SDS011;3293;51.690;5.982;2023-08-07T06:28:38;14.23;;;5.37;;
6519;SDS011;3293;51.690;5.982;2023-08-07T06:33:38;13.27;;;5.90;;
6519;SDS011;3293;51.690;5.982;2023-08-07T06:38:38;13.43;;;5.37;;
6519;SDS011;3293;51.690;5.982;2023-08-07T06:43:39;11.47;;;4.93;;
6519;SDS011;3293;51.690;5.982;2023-08-07T06:48:39;6.70;;;3.20;;
6519;SDS011;3293;51.690;5.982;2023-08-07T06:53:38;10.93;;;3.53;;
6519;SDS011;3293;51.690;5.982;2023-08-07T06:58:39;6.80;;;3.73;;
6519;SDS011;3293;51.690;5.982;2023-08-07T07:03:39;9.77;;;4.10;;
6519;SDS011;3293;51.690;5.982;2023-08-07T07:08:39;14.63;;;4.50;;
6519;SDS011;3293;51.690;5.982;2023-08-07T07:13:39;9.10;;;3.97;;
6519;SDS011;3293;51.690;5.982;2023-08-07T07:18:40;8.10;;;3.57;;
6519;SDS011;3293;51.690;5.982;2023-08-07T07:23:40;7.70;;;3.30;;
6519;SDS011;3293;51.690;5.982;2023-08-07T07:28:41;7.13;;;3.67;;
6519;SDS011;3293;51.690;5.982;2023-08-07T07:33:41;7.83;;;4.03;;
6519;SDS011;3293;51.690;5.982;2023-08-07T07:38:41;6.43;;;4.00;;
6519;SDS011;3293;51.690;5.982;2023-08-07T07:43:40;7.40;;;3.70;;
6519;SDS011;3293;51.690;5.982;2023-08-07T07:48:41;8.33;;;4.27;;
6519;SDS011;3293;51.690;5.982;2023-08-07T07:53:41;11.50;;;3.90;;
6519;SDS011;3293;51.690;5.982;2023-08-07T07:58:42;9.03;;;3.70;;
6519;SDS011;3293;51.690;5.982;2023-08-07T08:03:43;9.03;;;3.83;;
6519;SDS011;3293;51.690;5.982;2023-08-07T08:08:43;8.48;;;3.20;;
6519;SDS011;3293;51.690;5.982;2023-08-07T08:13:43;10.05;;;3.47;;
6519;SDS011;3293;51.690;5.982;2023-08-07T08:18:43;11.82;;;3.92;;
6519;SDS011;3293;51.690;5.982;2023-08-07T08:23:43;8.77;;;3.70;;
6519;SDS011;3293;51.690;5.982;2023-08-07T08:28:43;9.83;;;3.50;;
6519;SDS011;3293;51.690;5.982;2023-08-07T08:33:43;8.23;;;3.87;;
6519;SDS011;3293;51.690;5.982;2023-08-07T08:38:43;9.93;;;4.30;;
6519;SDS011;3293;51.690;5.982;2023-08-07T08:43:46;11.93;;;4.50;;
6519;SDS011;3293;51.690;5.982;2023-08-07T08:48:47;10.70;;;4.70;;
6519;SDS011;3293;51.690;5.982;2023-08-07T08:53:54;13.13;;;4.10;;
6519;SDS011;3293;51.690;5.982;2023-08-07T08:58:55;9.93;;;4.03;;
6519;SDS011;3293;51.690;5.982;2023-08-07T09:03:55;12.38;;;3.72;;
6519;SDS011;3293;51.690;5.982;2023-08-07T09:08:56;12.32;;;3.65;;
6519;SDS011;3293;51.690;5.982;2023-08-07T09:13:57;6.20;;;3.38;;
6519;SDS011;3293;51.690;5.982;2023-08-07T09:19:00;6.70;;;3.17;;
6519;SDS011;3293;51.690;5.982;2023-08-07T09:24:00;5.47;;;2.92;;
6519;SDS011;3293;51.690;5.982;2023-08-07T09:29:01;8.20;;;3.08;;
6519;SDS011;3293;51.690;5.982;2023-08-07T09:34:02;10.55;;;3.67;;
6519;SDS011;3293;51.690;5.982;2023-08-07T09:39:05;9.63;;;3.35;;
6519;SDS011;3293;51.690;5.982;2023-08-07T09:44:08;9.05;;;3.20;;
6519;SDS011;3293;51.690;5.982;2023-08-07T09:49:10;11.88;;;2.85;;
6519;SDS011;3293;51.690;5.982;2023-08-07T09:54:10;8.50;;;3.10;;
6519;SDS011;3293;51.690;5.982;2023-08-07T09:59:10;5.45;;;2.60;;
6519;SDS011;3293;51.690;5.982;2023-08-07T10:04:11;10.73;;;3.55;;
6519;SDS011;3293;51.690;5.982;2023-08-07T10:09:17;7.45;;;2.85;;
6519;SDS011;3293;51.690;5.982;2023-08-07T10:14:17;8.43;;;2.67;;
6519;SDS011;3293;51.690;5.982;2023-08-07T10:19:17;11.50;;;3.20;;
6519;SDS011;3293;51.690;5.982;2023-08-07T10:24:17;10.50;;;3.27;;
6519;SDS011;3293;51.690;5.982;2023-08-07T10:29:18;8.23;;;3.17;;
6519;SDS011;3293;51.690;5.982;2023-08-07T10:34:23;9.48;;;3.03;;
6519;SDS011;3293;51.690;5.982;2023-08-07T10:39:24;13.93;;;3.45;;
6519;SDS011;3293;51.690;5.982;2023-08-07T10:44:25;8.43;;;3.53;;
6519;SDS011;3293;51.690;5.982;2023-08-07T10:49:37;7.70;;;3.10;;
6519;SDS011;3293;51.690;5.982;2023-08-07T10:54:49;6.10;;;3.00;;
6519;SDS011;3293;51.690;5.982;2023-08-07T11:04:50;8.00;;;2.80;;
6519;SDS011;3293;51.690;5.982;2023-08-07T11:09:51;7.47;;;2.88;;
6519;SDS011;3293;51.690;5.982;2023-08-07T11:14:52;7.18;;;3.35;;
6519;SDS011;3293;51.690;5.982;2023-08-07T11:19:56;6.88;;;2.63;;
6519;SDS011;3293;51.690;5.982;2023-08-07T11:24:56;6.28;;;2.63;;
6519;SDS011;3293;51.690;5.982;2023-08-07T11:29:56;6.90;;;2.80;;
6519;SDS011;3293;51.690;5.982;2023-08-07T11:34:56;4.05;;;2.85;;
6519;SDS011;3293;51.690;5.982;2023-08-07T11:40:00;8.15;;;2.58;;
6519;SDS011;3293;51.690;5.982;2023-08-07T11:45:01;9.25;;;2.83;;
6519;SDS011;3293;51.690;5.982;2023-08-07T11:50:02;8.80;;;2.70;;
6519;SDS011;3293;51.690;5.982;2023-08-07T11:55:03;10.45;;;2.88;;
6519;SDS011;3293;51.690;5.982;2023-08-07T12:00:06;5.63;;;2.88;;
6519;SDS011;3293;51.690;5.982;2023-08-07T12:05:12;7.40;;;2.50;;
6519;SDS011;3293;51.690;5.982;2023-08-07T12:10:12;10.00;;;2.72;;
6519;SDS011;3293;51.690;5.982;2023-08-07T12:15:12;6.22;;;2.50;;
6519;SDS011;3293;51.690;5.982;2023-08-07T12:20:16;6.60;;;2.95;;
6519;SDS011;3293;51.690;5.982;2023-08-07T12:25:19;7.20;;;2.63;;
6519;SDS011;3293;51.690;5.982;2023-08-07T12:30:21;4.68;;;2.60;;
6519;SDS011;3293;51.690;5.982;2023-08-07T12:35:23;8.73;;;2.97;;
6519;SDS011;3293;51.690;5.982;2023-08-07T12:40:23;5.60;;;2.55;;
6519;SDS011;3293;51.690;5.982;2023-08-07T12:45:25;7.10;;;2.90;;
6519;SDS011;3293;51.690;5.982;2023-08-07T12:50:26;6.78;;;2.58;;
6519;SDS011;3293;51.690;5.982;2023-08-07T12:55:27;3.92;;;2.45;;
6519;SDS011;3293;51.690;5.982;2023-08-07T13:00:30;5.95;;;2.60;;
6519;SDS011;3293;51.690;5.982;2023-08-07T13:05:32;6.35;;;2.58;;
6519;SDS011;3293;51.690;5.982;2023-08-07T13:10:32;4.75;;;2.50;;
6519;SDS011;3293;51.690;5.982;2023-08-07T13:15:32;5.95;;;2.53;;
6519;SDS011;3293;51.690;5.982;2023-08-07T13:20:36;5.80;;;2.38;;
6519;SDS011;3293;51.690;5.982;2023-08-07T13:25:40;4.57;;;2.63;;
6519;SDS011;3293;51.690;5.982;2023-08-07T13:30:41;6.95;;;2.38;;
6519;SDS011;3293;51.690;5.982;2023-08-07T13:35:43;3.38;;;2.08;;
6519;SDS011;3293;51.690;5.982;2023-08-07T13:40:45;4.18;;;2.20;;
6519;SDS011;3293;51.690;5.982;2023-08-07T13:46:03;6.70;;;2.70;;
6519;SDS011;3293;51.690;5.982;2023-08-07T13:51:05;3.63;;;2.03;;
6519;SDS011;3293;51.690;5.982;2023-08-07T13:56:08;3.83;;;2.10;;
6519;SDS011;3293;51.690;5.982;2023-08-07T14:01:10;3.45;;;2.00;;
6519;SDS011;3293;51.690;5.982;2023-08-07T14:06:11;3.58;;;2.10;;
6519;SDS011;3293;51.690;5.982;2023-08-07T14:11:12;6.35;;;2.20;;
6519;SDS011;3293;51.690;5.982;2023-08-07T14:16:14;6.32;;;2.50;;
6519;SDS011;3293;51.690;5.982;2023-08-07T14:21:16;4.05;;;2.10;;
6519;SDS011;3293;51.690;5.982;2023-08-07T14:26:17;3.50;;;2.20;;
6519;SDS011;3293;51.690;5.982;2023-08-07T14:31:20;6.75;;;2.63;;
6519;SDS011;3293;51.690;5.982;2023-08-07T14:36:21;6.85;;;2.35;;
6519;SDS011;3293;51.690;5.982;2023-08-07T14:41:21;4.03;;;2.95;;
6519;SDS011;3293;51.690;5.982;2023-08-07T14:46:23;5.90;;;3.00;;
6519;SDS011;3293;51.690;5.982;2023-08-07T14:51:23;3.55;;;2.60;;
6519;SDS011;3293;51.690;5.982;2023-08-07T14:56:23;8.40;;;3.50;;
6519;SDS011;3293;51.690;5.982;2023-08-07T15:01:23;4.18;;;2.95;;
6519;SDS011;3293;51.690;5.982;2023-08-07T15:06:23;5.30;;;2.60;;
6519;SDS011;3293;51.690;5.982;2023-08-07T15:11:23;5.20;;;2.67;;
6519;SDS011;3293;51.690;5.982;2023-08-07T15:16:23;5.63;;;2.95;;
6519;SDS011;3293;51.690;5.982;2023-08-07T15:21:23;7.22;;;3.10;;
6519;SDS011;3293;51.690;5.982;2023-08-07T15:26:23;6.18;;;2.92;;
6519;SDS011;3293;51.690;5.982;2023-08-07T15:31:23;5.25;;;3.03;;
6519;SDS011;3293;51.690;5.982;2023-08-07T15:36:23;4.53;;;2.70;;
6519;SDS011;3293;51.690;5.982;2023-08-07T15:41:23;7.00;;;2.80;;
6519;SDS011;3293;51.690;5.982;2023-08-07T15:46:23;2.90;;;2.60;;
6519;SDS011;3293;51.690;5.982;2023-08-07T15:51:23;3.90;;;2.45;;
6519;SDS011;3293;51.690;5.982;2023-08-07T15:56:23;5.00;;;2.83;;
6519;SDS011;3293;51.690;5.982;2023-08-07T16:01:23;7.72;;;2.85;;
6519;SDS011;3293;51.690;5.982;2023-08-07T16:06:23;4.35;;;2.80;;
6519;SDS011;3293;51.690;5.982;2023-08-07T16:11:23;4.30;;;2.60;;
6519;SDS011;3293;51.690;5.982;2023-08-07T16:16:23;5.50;;;2.70;;
6519;SDS011;3293;51.690;5.982;2023-08-07T16:21:23;7.17;;;2.47;;
6519;SDS011;3293;51.690;5.982;2023-08-07T16:26:23;3.17;;;2.33;;
6519;SDS011;3293;51.690;5.982;2023-08-07T16:31:24;2.85;;;2.50;;
6519;SDS011;3293;51.690;5.982;2023-08-07T16:36:25;2.77;;;2.53;;
6519;SDS011;3293;51.690;5.982;2023-08-07T16:41:25;3.27;;;2.10;;
6519;SDS011;3293;51.690;5.982;2023-08-07T16:46:25;6.17;;;3.13;;
6519;SDS011;3293;51.690;5.982;2023-08-07T16:51:26;3.87;;;2.50;;
6519;SDS011;3293;51.690;5.982;2023-08-07T16:56:27;4.10;;;2.67;;
6519;SDS011;3293;51.690;5.982;2023-08-07T17:01:27;3.20;;;2.47;;
6519;SDS011;3293;51.690;5.982;2023-08-07T17:06:27;5.77;;;2.70;;
6519;SDS011;3293;51.690;5.982;2023-08-07T17:11:27;4.37;;;2.13;;
6519;SDS011;3293;51.690;5.982;2023-08-07T17:16:27;4.73;;;2.93;;
6519;SDS011;3293;51.690;5.982;2023-08-07T17:21:27;4.33;;;2.80;;
6519;SDS011;3293;51.690;5.982;2023-08-07T17:26:27;3.73;;;2.83;;
6519;SDS011;3293;51.690;5.982;2023-08-07T17:31:29;3.43;;;2.50;;
6519;SDS011;3293;51.690;5.982;2023-08-07T17:36:29;6.07;;;2.90;;
6519;SDS011;3293;51.690;5.982;2023-08-07T17:41:29;3.67;;;2.67;;
6519;SDS011;3293;51.690;5.982;2023-08-07T17:46:29;3.77;;;2.40;;
6519;SDS011;3293;51.690;5.982;2023-08-07T17:51:31;4.17;;;2.90;;
6519;SDS011;3293;51.690;5.982;2023-08-07T17:56:31;3.80;;;2.73;;
6519;SDS011;3293;51.690;5.982;2023-08-07T18:01:32;4.27;;;2.50;;
6519;SDS011;3293;51.690;5.982;2023-08-07T18:06:32;6.13;;;2.67;;
6519;SDS011;3293;51.690;5.982;2023-08-07T18:11:32;3.57;;;2.90;;
6519;SDS011;3293;51.690;5.982;2023-08-07T18:16:33;5.13;;;2.90;;
6519;SDS011;3293;51.690;5.982;2023-08-07T18:21:33;3.87;;;2.97;;
6519;SDS011;3293;51.690;5.982;2023-08-07T18:26:34;3.97;;;2.70;;
6519;SDS011;3293;51.690;5.982;2023-08-07T18:31:34;3.80;;;3.30;;
6519;SDS011;3293;51.690;5.982;2023-08-07T18:36:34;3.93;;;2.70;;
6519;SDS011;3293;51.690;5.982;2023-08-07T18:41:37;4.43;;;2.97;;
6519;SDS011;3293;51.690;5.982;2023-08-07T18:46:38;3.33;;;2.97;;
6519;SDS011;3293;51.690;5.982;2023-08-07T18:51:38;3.63;;;3.27;;
6519;SDS011;3293;51.690;5.982;2023-08-07T18:56:39;6.17;;;3.00;;
6519;SDS011;3293;51.690;5.982;2023-08-07T19:01:39;8.13;;;3.43;;
6519;SDS011;3293;51.690;5.982;2023-08-07T19:06:39;6.63;;;3.40;;
6519;SDS011;3293;51.690;5.982;2023-08-07T19:11:38;5.40;;;2.97;;
6519;SDS011;3293;51.690;5.982;2023-08-07T19:16:40;4.53;;;2.73;;
6519;SDS011;3293;51.690;5.982;2023-08-07T19:21:44;4.33;;;3.03;;
6519;SDS011;3293;51.690;5.982;2023-08-07T19:26:44;3.80;;;3.33;;
6519;SDS011;3293;51.690;5.982;2023-08-07T19:31:44;4.73;;;3.60;;
6519;SDS011;3293;51.690;5.982;2023-08-07T19:36:44;6.63;;;4.00;;
6519;SDS011;3293;51.690;5.982;2023-08-07T19:41:44;6.07;;;4.00;;
6519;SDS011;3293;51.690;5.982;2023-08-07T19:46:45;3.93;;;3.50;;
6519;SDS011;3293;51.690;5.982;2023-08-07T19:51:45;5.43;;;3.60;;
6519;SDS011;3293;51.690;5.982;2023-08-07T19:56:45;6.90;;;3.70;;
6519;SDS011;3293;51.690;5.982;2023-08-07T20:01:45;6.83;;;3.80;;
6519;SDS011;3293;51.690;5.982;2023-08-07T20:06:45;4.40;;;3.67;;
6519;SDS011;3293;51.690;5.982;2023-08-07T20:11:46;4.93;;;4.43;;
6519;SDS011;3293;51.690;5.982;2023-08-07T20:16:46;7.83;;;5.17;;
6519;SDS011;3293;51.690;5.982;2023-08-07T20:21:46;7.60;;;4.40;;
6519;SDS011;3293;51.690;5.982;2023-08-07T20:26:46;6.80;;;5.20;;
6519;SDS011;3293;51.690;5.982;2023-08-07T20:31:46;7.23;;;5.00;;
6519;SDS011;3293;51.690;5.982;2023-08-07T20:36:46;6.57;;;5.20;;
6519;SDS011;3293;51.690;5.982;2023-08-07T20:41:47;6.50;;;5.53;;
6519;SDS011;3293;51.690;5.982;2023-08-07T20:46:47;7.13;;;5.13;;
6519;SDS011;3293;51.690;5.982;2023-08-07T20:51:48;9.33;;;4.93;;
6519;SDS011;3293;51.690;5.982;2023-08-07T20:56:47;4.87;;;4.37;;
6519;SDS011;3293;51.690;5.982;2023-08-07T21:01:48;7.00;;;4.30;;
6519;SDS011;3293;51.690;5.982;2023-08-07T21:06:48;9.10;;;4.40;;
6519;SDS011;3293;51.690;5.982;2023-08-07T21:11:50;8.73;;;4.67;;
6519;SDS011;3293;51.690;5.982;2023-08-07T21:16:52;6.60;;;4.47;;
6519;SDS011;3293;51.690;5.982;2023-08-07T21:21:52;9.27;;;4.53;;
6519;SDS011;3293;51.690;5.982;2023-08-07T21:26:54;6.13;;;4.20;;
6519;SDS011;3293;51.690;5.982;2023-08-07T21:31:56;6.73;;;4.20;;
6519;SDS011;3293;51.690;5.982;2023-08-07T21:36:55;7.73;;;4.83;;
6519;SDS011;3293;51.690;5.982;2023-08-07T21:41:57;5.67;;;4.50;;
6519;SDS011;3293;51.690;5.982;2023-08-07T21:46:58;7.00;;;4.67;;
6519;SDS011;3293;51.690;5.982;2023-08-07T21:51:58;5.00;;;4.40;;
6519;SDS011;3293;51.690;5.982;2023-08-07T21:56:58;4.83;;;3.83;;
6519;SDS011;3293;51.690;5.982;2023-08-07T22:01:58;5.73;;;4.23;;
6519;SDS011;3293;51.690;5.982;2023-08-07T22:07:00;8.17;;;4.50;;
6519;SDS011;3293;51.690;5.982;2023-08-07T22:12:00;5.47;;;4.40;;
6519;SDS011;3293;51.690;5.982;2023-08-07T22:17:01;5.83;;;3.90;;
6519;SDS011;3293;51.690;5.982;2023-08-07T22:22:01;5.70;;;4.40;;
6519;SDS011;3293;51.690;5.982;2023-08-07T22:27:02;7.57;;;4.50;;
6519;SDS011;3293;51.690;5.982;2023-08-07T22:32:02;7.43;;;4.43;;
6519;SDS011;3293;51.690;5.982;2023-08-07T22:37:03;7.13;;;4.60;;
6519;SDS011;3293;51.690;5.982;2023-08-07T22:42:03;7.30;;;4.47;;
6519;SDS011;3293;51.690;5.982;2023-08-07T22:47:03;8.70;;;4.57;;
6519;SDS011;3293;51.690;5.982;2023-08-07T22:52:03;5.70;;;4.03;;
6519;SDS011;3293;51.690;5.982;2023-08-07T22:57:03;8.53;;;4.50;;
6519;SDS011;3293;51.690;5.982;2023-08-07T23:02:04;6.90;;;4.30;;
6519;SDS011;3293;51.690;5.982;2023-08-07T23:07:04;4.77;;;3.90;;
6519;SDS011;3293;51.690;5.982;2023-08-07T23:12:04;8.60;;;4.53;;
6519;SDS011;3293;51.690;5.982;2023-08-07T23:17:05;10.60;;;4.63;;
6519;SDS011;3293;51.690;5.982;2023-08-07T23:22:05;5.47;;;4.50;;
6519;SDS011;3293;51.690;5.982;2023-08-07T23:27:05;7.77;;;4.20;;
6519;SDS011;3293;51.690;5.982;2023-08-07T23:32:06;10.23;;;3.97;;
6519;SDS011;3293;51.690;5.982;2023-08-07T23:37:06;7.07;;;4.30;;
6519;SDS011;3293;51.690;5.982;2023-08-07T23:42:06;4.80;;;4.03;;
6519;SDS011;3293;51.690;5.982;2023-08-07T23:47:10;6.73;;;4.70;;
6519;SDS011;3293;51.690;5.982;2023-08-07T23:52:10;4.57;;;4.17;;
6519;SDS011;3293;51.690;5.982;2023-08-07T23:57:10;6.57;;;4.67;;
